Time;durP1;ratioP1;P1;durP2;ratioP2;P2;SDS_P1;SDS_P2;PMS_P1;PMS_P2;Temp;Humidity;BMP_temperature;BMP_pressure;BME280_temperature;BME280_humidity;BME280_pressure;Samples;Min_cycle;Max_cycle;Signal;HPM_P1;HPM_P2
2023/05/27 00:01:09;;;;;;;12.82;3.20;;;;;;;9.06;100.00;102826.31;5050491;28;20052;-50
2023/05/27 00:03:37;;;;;;;11.10;3.15;;;;;;;9.12;100.00;102827.91;5050610;28;20148;-59
2023/05/27 00:06:09;;;;;;;14.82;3.65;;;;;;;9.13;100.00;102827.00;5051035;28;20211;-58
2023/05/27 00:08:37;;;;;;;16.77;3.72;;;;;;;9.06;100.00;102825.47;5053722;28;20055;-59
2023/05/27 00:11:07;;;;;;;13.07;3.20;;;;;;;8.89;100.00;102826.78;5051244;28;20049;-57
2023/05/27 00:13:35;;;;;;;11.48;3.63;;;;;;;8.98;100.00;102830.06;5051696;28;20858;-58
2023/05/27 00:16:03;;;;;;;18.73;3.75;;;;;;;8.94;100.00;102830.16;5052199;28;20439;-59
2023/05/27 00:18:32;;;;;;;15.15;3.75;;;;;;;8.95;100.00;102823.97;5052960;28;20403;-59
2023/05/27 00:21:00;;;;;;;17.90;4.05;;;;;;;8.87;100.00;102825.94;5052995;28;20055;-58
2023/05/27 00:23:29;;;;;;;13.25;4.00;;;;;;;8.82;100.00;102816.47;5051996;28;20057;-59
2023/05/27 00:26:00;;;;;;;14.45;3.25;;;;;;;8.82;100.00;102817.34;5049779;28;20500;-59
2023/05/27 00:28:31;;;;;;;11.85;3.85;;;;;;;8.82;100.00;102817.34;5050160;28;20049;-59
2023/05/27 00:30:59;;;;;;;11.35;3.13;;;;;;;8.68;100.00;102820.31;5051042;28;20052;-59
2023/05/27 00:33:28;;;;;;;18.92;4.30;;;;;;;8.65;100.00;102819.53;5050613;28;20037;-51
2023/05/27 00:35:56;;;;;;;13.30;3.28;;;;;;;8.63;100.00;102815.19;5052936;28;20049;-52
2023/05/27 00:38:24;;;;;;;14.95;3.40;;;;;;;8.60;100.00;102817.91;5033011;28;20049;-52
2023/05/27 00:40:54;;;;;;;16.02;4.10;;;;;;;8.60;100.00;102817.03;5048462;28;20067;-52
2023/05/27 00:43:22;;;;;;;18.40;3.97;;;;;;;8.57;100.00;102812.72;5049212;28;20518;-52
2023/05/27 00:45:54;;;;;;;12.77;3.70;;;;;;;8.55;100.00;102809.28;5050286;28;20051;-51
2023/05/27 00:48:22;;;;;;;14.80;3.78;;;;;;;8.51;100.00;102812.88;5050182;28;20040;-59
2023/05/27 00:50:51;;;;;;;16.15;4.32;;;;;;;8.49;100.00;102808.56;5032280;28;20064;-59
2023/05/27 00:53:21;;;;;;;15.90;4.55;;;;;;;8.45;100.00;102810.41;5051200;28;20131;-58
2023/05/27 00:55:50;;;;;;;14.02;4.03;;;;;;;8.47;100.00;102808.63;5049753;28;20107;-58
2023/05/27 00:58:21;;;;;;;19.20;4.03;;;;;;;8.49;100.00;102808.56;5049940;28;20512;-59
2023/05/27 01:00:50;;;;;;;22.20;5.13;;;;;;;8.40;100.00;102809.66;5050624;28;20045;-58
2023/05/27 01:03:20;;;;;;;14.85;4.03;;;;;;;8.38;100.00;102800.94;5049777;28;20044;-59
2023/05/27 01:05:48;;;;;;;17.15;4.95;;;;;;;8.31;100.00;102805.47;5028479;28;20157;-59
2023/05/27 01:08:29;;;;;;;15.60;4.32;;;;;;;8.29;100.00;102797.66;5029930;28;20064;-59
2023/05/27 01:10:58;;;;;;;14.75;3.85;;;;;;;8.22;100.00;102793.47;5029127;28;20581;-59
2023/05/27 01:13:34;;;;;;;22.02;4.68;;;;;;;8.17;100.00;102792.69;5029937;28;20049;-58
2023/05/27 01:16:04;;;;;;;17.23;4.28;;;;;;;8.17;100.00;102797.09;5031535;28;20081;-58
2023/05/27 01:18:35;;;;;;;21.40;5.18;;;;;;;8.18;100.00;102789.19;5032595;28;20053;-59
2023/05/27 01:21:07;;;;;;;18.80;4.57;;;;;;;8.18;100.00;102791.81;5029404;28;20154;-59
2023/05/27 01:23:38;;;;;;;15.00;4.68;;;;;;;8.17;100.00;102790.09;5030039;28;20073;-58
2023/05/27 01:26:06;;;;;;;14.90;4.10;;;;;;;8.12;100.00;102792.78;5031002;28;20041;-60
2023/05/27 01:28:35;;;;;;;18.23;4.68;;;;;;;8.17;100.00;102790.09;5032545;28;20120;-59
2023/05/27 01:31:14;;;;;;;13.13;4.40;;;;;;;8.15;100.00;102788.38;5030432;28;20104;-59
2023/05/27 01:33:46;;;;;;;18.35;4.72;;;;;;;8.12;100.00;102778.84;5030432;28;20045;-59
2023/05/27 01:36:18;;;;;;;16.13;4.35;;;;;;;8.20;100.00;102783.91;5033394;28;20104;-58
2023/05/27 01:38:50;;;;;;;17.17;4.25;;;;;;;8.24;100.00;102777.69;5034205;28;20076;-58
2023/05/27 01:41:19;;;;;;;16.30;4.65;;;;;;;8.18;100.00;102777.81;5032012;28;20045;-59
2023/05/27 01:43:48;;;;;;;15.35;4.88;;;;;;;8.13;100.00;102777.94;5033787;28;20037;-58
2023/05/27 01:46:17;;;;;;;18.60;5.68;;;;;;;8.17;100.00;102776.13;5033218;28;20056;-58
2023/05/27 01:48:45;;;;;;;12.30;4.72;;;;;;;8.11;100.00;102777.09;5033762;28;20041;-58
2023/05/27 01:51:13;;;;;;;16.70;4.35;;;;;;;8.07;100.00;102776.34;5033308;28;20054;-57
2023/05/27 01:53:41;;;;;;;18.67;5.57;;;;;;;8.06;100.00;102776.38;5034819;28;20049;-58
2023/05/27 01:56:11;;;;;;;16.10;4.95;;;;;;;7.98;100.00;102778.31;5032584;28;20045;-59
2023/05/27 01:58:39;;;;;;;13.50;4.85;;;;;;;7.95;100.00;102779.25;5033920;28;20073;-58
2023/05/27 02:01:08;;;;;;;16.80;4.65;;;;;;;8.04;100.00;102775.53;5033715;28;20045;-58
2023/05/27 02:03:36;;;;;;;11.95;4.80;;;;;;;7.94;100.00;102783.59;5033322;28;20049;-51
2023/05/27 02:06:08;;;;;;;18.70;4.63;;;;;;;7.95;100.00;102777.47;5049704;28;20120;-58
2023/05/27 02:08:36;;;;;;;14.77;4.30;;;;;;;8.00;100.00;102785.22;5055099;28;20462;-53
2023/05/27 02:11:04;;;;;;;20.33;5.15;;;;;;;7.88;100.00;102785.50;5055127;28;20107;-54
2023/05/27 02:13:33;;;;;;;18.20;4.57;;;;;;;7.91;100.00;102780.22;5052051;28;20408;-52
2023/05/27 02:16:02;;;;;;;17.50;5.13;;;;;;;7.97;100.00;102784.44;5053363;28;20053;-51
2023/05/27 02:18:31;;;;;;;13.98;5.40;;;;;;;7.97;100.00;102787.06;5051943;28;20132;-51
2023/05/27 02:21:05;;;;;;;18.30;4.93;;;;;;;7.95;100.00;102776.63;5051748;28;20407;-53
2023/05/27 02:23:33;;;;;;;13.10;4.45;;;;;;;7.92;100.00;102782.81;5054412;28;20488;-54
2023/05/27 02:26:01;;;;;;;14.52;4.65;;;;;;;7.87;100.00;102787.28;5050635;28;20143;-53
2023/05/27 02:28:29;;;;;;;18.35;4.78;;;;;;;7.84;100.00;102787.34;5053100;28;20045;-54
2023/05/27 02:31:00;;;;;;;17.52;4.65;;;;;;;7.80;100.00;102785.69;5055167;28;20076;-54
2023/05/27 02:33:30;;;;;;;16.50;4.35;;;;;;;7.73;100.00;102795.44;5052440;28;20044;-52
2023/05/27 02:35:58;;;;;;;15.95;5.00;;;;;;;7.76;100.00;102786.66;5033448;28;20053;-51
2023/05/27 02:38:26;;;;;;;18.67;5.78;;;;;;;7.80;100.00;102788.31;5052083;28;20121;-54
2023/05/27 02:40:55;;;;;;;17.67;6.05;;;;;;;7.75;100.00;102795.41;5050088;28;20053;-53
2023/05/27 02:43:23;;;;;;;16.13;4.65;;;;;;;7.70;100.00;102792.91;5051088;28;20418;-49
2023/05/27 02:45:51;;;;;;;19.92;4.90;;;;;;;7.65;100.00;102794.75;5051620;28;20048;-53
2023/05/27 02:48:21;;;;;;;14.85;4.93;;;;;;;7.70;100.00;102798.16;5033461;28;20095;-52
2023/05/27 02:50:49;;;;;;;19.98;5.50;;;;;;;7.61;100.00;102791.34;5051841;28;20045;-50
2023/05/27 02:53:17;;;;;;;14.80;4.72;;;;;;;7.61;100.00;102799.19;5051653;28;20041;-50
2023/05/27 02:55:45;;;;;;;16.55;4.15;;;;;;;7.53;100.00;102795.88;5053292;28;20033;-50
2023/05/27 02:58:13;;;;;;;15.13;5.05;;;;;;;7.55;100.00;102795.84;5054882;28;20048;-52
2023/05/27 03:00:42;;;;;;;14.32;4.72;;;;;;;7.42;100.00;102795.25;5055079;28;20523;-52
2023/05/27 03:03:12;;;;;;;20.40;5.45;;;;;;;7.45;100.00;102792.56;5054914;28;20494;-48
2023/05/27 03:05:42;;;;;;;15.85;4.47;;;;;;;7.31;100.00;102791.97;5054265;28;20139;-51
2023/05/27 03:08:10;;;;;;;15.65;4.78;;;;;;;7.36;100.00;102793.63;5052905;28;20523;-52
2023/05/27 03:10:41;;;;;;;19.55;4.93;;;;;;;7.32;100.00;102797.19;5032643;28;20048;-54
2023/05/27 03:13:09;;;;;;;20.13;4.47;;;;;;;7.32;100.00;102786.72;5053301;28;20053;-53
2023/05/27 03:15:38;;;;;;;16.05;4.65;;;;;;;7.36;100.00;102788.38;5051574;28;20061;-51
2023/05/27 03:18:06;;;;;;;16.77;4.35;;;;;;;7.39;100.00;102784.81;5051754;28;20507;-50
2023/05/27 03:20:34;;;;;;;16.60;4.50;;;;;;;7.32;100.00;102780.63;5052501;28;20045;-50
2023/05/27 03:23:04;;;;;;;15.73;5.82;;;;;;;7.36;100.00;102777.03;5052708;28;20415;-51
2023/05/27 03:25:33;;;;;;;14.35;5.32;;;;;;;7.37;100.00;102778.78;5050732;28;20075;-50
2023/05/27 03:28:01;;;;;;;15.38;4.40;;;;;;;7.39;100.00;102776.97;5050167;28;20484;-50
2023/05/27 03:30:30;;;;;;;19.77;4.63;;;;;;;7.26;100.00;102774.59;5052027;28;20048;-50
2023/05/27 03:32:58;;;;;;;16.92;5.05;;;;;;;7.32;100.00;102771.03;5053312;28;20053;-51
2023/05/27 03:35:26;;;;;;;15.30;5.00;;;;;;;7.36;100.00;102771.81;5051097;28;20068;-49
2023/05/27 03:37:54;;;;;;;16.60;4.60;;;;;;;7.35;100.00;102783.16;5051026;28;20041;-50
2023/05/27 03:40:24;;;;;;;13.38;4.28;;;;;;;7.45;100.00;102776.84;5051008;28;20520;-54
2023/05/27 03:42:52;;;;;;;17.38;5.28;;;;;;;7.25;100.00;102779.88;5049560;28;20428;-49
2023/05/27 03:45:20;;;;;;;13.25;4.60;;;;;;;7.28;100.00;102772.84;5052751;28;20041;-51
2023/05/27 03:47:48;;;;;;;18.05;4.70;;;;;;;7.26;100.00;102769.38;5051091;28;20391;-47
2023/05/27 03:50:17;;;;;;;18.38;4.78;;;;;;;7.23;100.00;102772.06;5050408;28;20057;-50
2023/05/27 03:52:45;;;;;;;14.35;4.32;;;;;;;7.25;100.00;102770.28;5033011;28;20049;-52
2023/05/27 03:55:13;;;;;;;15.63;5.55;;;;;;;7.19;100.00;102772.16;5050431;28;20059;-48
2023/05/27 03:57:43;;;;;;;19.75;5.32;;;;;;;7.16;100.00;102770.47;5048367;28;20052;-50
2023/05/27 04:00:14;;;;;;;18.40;4.63;;;;;;;7.23;100.00;102777.28;5051307;28;20123;-50
2023/05/27 04:02:42;;;;;;;21.40;5.50;;;;;;;7.19;100.00;102775.63;5051322;28;21019;-52
2023/05/27 04:05:11;;;;;;;12.25;4.82;;;;;;;7.17;100.00;102772.19;5049278;28;20051;-48
2023/05/27 04:07:39;;;;;;;13.50;5.05;;;;;;;7.27;100.00;102758.00;5050512;28;20045;-51
2023/05/27 04:10:08;;;;;;;13.73;4.82;;;;;;;7.24;100.00;102762.44;5050497;28;20045;-49
2023/05/27 04:12:36;;;;;;;17.58;5.28;;;;;;;7.23;100.00;102755.50;5048746;28;20436;-46
2023/05/27 04:15:07;;;;;;;16.92;5.43;;;;;;;7.23;100.00;102758.97;5050480;28;20045;-53
2023/05/27 04:17:38;;;;;;;17.23;5.30;;;;;;;7.25;100.00;102762.44;5032699;28;20500;-52
2023/05/27 04:20:13;;;;;;;12.73;4.18;;;;;;;7.38;100.00;102760.41;5052931;28;20049;-58
2023/05/27 04:22:43;;;;;;;18.92;5.50;;;;;;;7.21;100.00;102757.28;5050482;28;20480;-49
2023/05/27 04:25:13;;;;;;;15.65;5.15;;;;;;;7.23;100.00;102758.13;5050045;28;20079;-52
2023/05/27 04:27:42;;;;;;;14.07;4.70;;;;;;;7.28;100.00;102758.91;5050241;28;20044;-52
2023/05/27 04:30:12;;;;;;;14.95;5.03;;;;;;;7.34;100.00;102747.44;5053113;28;20080;-51
2023/05/27 04:32:40;;;;;;;14.88;5.30;;;;;;;7.31;100.00;102748.34;5052933;28;20049;-51
2023/05/27 04:35:10;;;;;;;18.90;4.28;;;;;;;7.31;100.00;102735.25;5052810;28;20086;-49
2023/05/27 04:37:40;;;;;;;19.30;4.93;;;;;;;7.44;100.00;102738.47;5051357;28;20095;-51
2023/05/27 04:40:10;;;;;;;16.65;4.88;;;;;;;7.42;100.00;102735.03;5049857;28;20060;-52
2023/05/27 04:42:38;;;;;;;20.42;4.93;;;;;;;7.46;100.00;102741.94;5047938;28;20044;-51
2023/05/27 04:45:09;;;;;;;19.23;5.03;;;;;;;7.41;100.00;102734.16;5052263;28;20053;-53
2023/05/27 04:47:40;;;;;;;22.17;5.00;;;;;;;7.44;100.00;102739.34;5052648;28;20051;-49
2023/05/27 04:50:10;;;;;;;18.80;5.75;;;;;;;7.44;100.00;102730.63;5033467;28;20052;-49
2023/05/27 04:52:40;;;;;;;16.35;4.78;;;;;;;7.49;100.00;102741.00;5049452;28;20135;-52
2023/05/27 04:55:11;;;;;;;17.50;5.10;;;;;;;7.51;100.00;102734.84;5049409;28;20519;-51
2023/05/27 04:57:41;;;;;;;17.20;4.95;;;;;;;7.58;100.00;102736.41;5048079;28;20102;-50
2023/05/27 05:00:35;;;;;;;;;;;;;;;7.60;100.00;102734.59;5052332;28;20356;-53
2023/05/27 05:03:06;;;;;;;17.45;5.10;;;;;;;7.69;100.00;102738.78;5049754;28;19986;-51
2023/05/27 05:05:36;;;;;;;17.58;4.72;;;;;;;7.77;100.00;102742.09;5049230;28;20064;-51
2023/05/27 05:08:06;;;;;;;18.60;6.65;;;;;;;7.79;100.00;102736.81;5051928;28;20504;-52
2023/05/27 05:10:34;;;;;;;16.08;4.90;;;;;;;7.85;100.00;102728.81;5052505;28;20361;-58
2023/05/27 05:13:02;;;;;;;18.20;5.43;;;;;;;7.94;100.00;102739.06;5051106;28;20044;-58
2023/05/27 05:15:31;;;;;;;20.83;4.90;;;;;;;8.03;100.00;102735.38;5049402;28;20124;-59
2023/05/27 05:18:02;;;;;;;17.23;5.55;;;;;;;8.11;100.00;102740.41;5050238;28;20041;-58
2023/05/27 05:20:32;;;;;;;25.08;6.43;;;;;;;8.17;100.00;102732.41;5049321;28;20090;-59
2023/05/27 05:23:00;;;;;;;22.35;7.20;;;;;;;8.21;100.00;102735.84;5051957;28;20068;-59
2023/05/27 05:25:30;;;;;;;21.08;5.80;;;;;;;8.29;100.00;102733.88;5049096;28;20049;-57
2023/05/27 05:27:58;;;;;;;18.27;5.20;;;;;;;8.37;100.00;102736.28;5049059;28;20057;-48
2023/05/27 05:30:26;;;;;;;18.75;5.57;;;;;;;8.55;100.00;102735.84;5049259;28;20045;-49
2023/05/27 05:32:54;;;;;;;18.90;5.32;;;;;;;8.58;100.00;102730.50;5051721;28;20045;-52
2023/05/27 05:35:22;;;;;;;17.88;4.78;;;;;;;8.62;100.00;102729.53;5048477;28;20060;-49
2023/05/27 05:37:52;;;;;;;19.35;5.07;;;;;;;8.68;100.00;102725.03;5049234;28;20049;-52
2023/05/27 05:40:22;;;;;;;20.10;5.45;;;;;;;8.74;100.00;102728.34;5049013;28;20045;-52
2023/05/27 05:42:51;;;;;;;19.83;4.95;;;;;;;8.81;100.00;102715.91;5047487;28;20636;-51
2023/05/27 05:45:19;;;;;;;15.18;5.32;;;;;;;8.87;100.00;102720.97;5048941;28;20082;-51
2023/05/27 05:47:48;;;;;;;17.58;5.35;;;;;;;8.94;100.00;102722.56;5049474;28;20709;-50
2023/05/27 05:50:16;;;;;;;20.80;6.32;;;;;;;9.09;100.00;102717.75;5048575;28;20071;-51
2023/05/27 05:52:45;;;;;;;18.27;5.80;;;;;;;9.16;100.00;102721.91;5048958;28;20127;-52
2023/05/27 05:55:14;;;;;;;19.38;5.38;;;;;;;9.26;100.00;102725.16;5032921;28;20065;-51
2023/05/27 05:57:42;;;;;;;19.55;5.93;;;;;;;9.38;100.00;102723.91;5049201;28;20075;-53
2023/05/27 06:00:12;;;;;;;23.20;5.55;;;;;;;9.52;100.00;102728.75;5048997;28;20048;-53
2023/05/27 06:02:40;;;;;;;20.55;6.05;;;;;;;9.59;100.00;102720.63;5049418;28;20049;-53
2023/05/27 06:05:09;;;;;;;19.90;5.57;;;;;;;9.68;100.00;102721.22;5030609;28;20095;-55
2023/05/27 06:07:38;;;;;;;20.08;5.63;;;;;;;9.77;100.00;102727.06;5029317;28;20100;-54
2023/05/27 06:10:07;;;;;;;18.95;5.30;;;;;;;9.82;100.00;102726.94;5029204;28;20075;-51
2023/05/27 06:12:37;;;;;;;18.95;6.10;;;;;;;9.83;100.00;102718.13;5030728;28;20393;-50
2023/05/27 06:15:06;;;;;;;21.77;5.75;;;;;;;9.99;100.00;102710.59;5029409;28;20049;-50
2023/05/27 06:17:34;;;;;;;17.73;5.53;;;;;;;10.08;100.00;102722.59;5029008;28;20041;-53
2023/05/27 06:20:03;;;;;;;17.13;5.30;;;;;;;10.15;100.00;102713.59;5033212;28;20049;-54
2023/05/27 06:22:31;;;;;;;16.92;5.38;;;;;;;10.28;100.00;102719.28;5035672;28;20046;-53
2023/05/27 06:24:59;;;;;;;19.90;5.80;;;;;;;10.36;100.00;102719.06;5035071;28;20045;-48
2023/05/27 06:27:27;;;;;;;15.85;5.10;;;;;;;10.49;100.00;102721.19;5028706;28;21044;-51
2023/05/27 06:29:57;;;;;;;18.65;5.90;;;;;;;10.60;100.00;102715.56;5032919;28;20140;-53
2023/05/27 06:32:27;;;;;;;24.73;5.65;;;;;;;10.69;100.00;102708.25;5034479;28;20045;-54
2023/05/27 06:34:55;;;;;;;17.20;4.70;;;;;;;10.75;100.00;102708.88;5034039;28;20111;-51
2023/05/27 06:37:27;;;;;;;17.27;5.32;;;;;;;10.88;100.00;102705.81;5032586;28;20091;-54
2023/05/27 06:39:55;;;;;;;16.95;4.28;;;;;;;11.01;100.00;102707.06;5033025;28;20053;-60
2023/05/27 06:42:23;;;;;;;16.45;4.88;;;;;;;11.22;100.00;102697.53;5033361;28;20136;-59
2023/05/27 06:44:51;;;;;;;16.27;4.25;;;;;;;11.25;100.00;102697.38;5035481;28;20056;-60
2023/05/27 06:47:21;;;;;;;16.58;4.88;;;;;;;11.36;100.00;102701.38;5034265;28;20052;-60
2023/05/27 06:49:49;;;;;;;18.45;5.47;;;;;;;11.38;100.00;102692.50;5033856;28;20052;-60
2023/05/27 06:52:17;;;;;;;15.00;5.35;;;;;;;11.49;100.00;102703.47;5032876;28;20053;-60
2023/05/27 06:54:46;;;;;;;15.57;5.20;;;;;;;11.74;100.00;102688.44;5034216;28;20132;-60
2023/05/27 06:57:14;;;;;;;15.68;5.20;;;;;;;11.88;100.00;102687.91;5033419;28;20053;-60
2023/05/27 06:59:42;;;;;;;14.45;4.82;;;;;;;11.96;100.00;102689.31;5033793;28;20053;-61
2023/05/27 07:02:11;;;;;;;19.00;4.90;;;;;;;12.14;100.00;102692.94;5034282;28;20049;-60
2023/05/27 07:04:40;;;;;;;20.48;5.53;;;;;;;12.22;100.00;102687.34;5032994;28;20136;-59
2023/05/27 07:07:08;;;;;;;18.75;5.10;;;;;;;12.45;100.00;102690.78;5052838;28;20083;-60
2023/05/27 07:09:36;;;;;;;19.45;4.97;;;;;;;12.65;100.00;102688.13;5053302;28;20063;-60
2023/05/27 07:12:06;;;;;;;17.15;4.80;;;;;;;12.72;100.00;102685.19;5053073;28;20040;-60
2023/05/27 07:14:34;;;;;;;16.33;5.65;;;;;;;12.95;100.00;102679.75;5054119;28;20072;-61
2023/05/27 07:17:03;;;;;;;17.67;4.80;;;;;;;13.09;100.00;102675.56;5053587;28;20388;-60
2023/05/27 07:19:31;;;;;;;17.52;4.82;;;;;;;13.19;100.00;102675.06;5036812;28;20380;-60
2023/05/27 07:22:00;;;;;;;18.90;5.10;;;;;;;13.28;100.00;102679.09;5036497;28;20045;-61
2023/05/27 07:24:28;;;;;;;20.60;5.18;;;;;;;13.35;100.00;102669.97;5053103;28;20377;-59
2023/05/27 07:26:59;;;;;;;16.90;4.70;;;;;;;13.60;100.00;102673.22;5052319;28;20044;-60
2023/05/27 07:29:27;;;;;;;20.73;5.20;;;;;;;13.85;100.00;102671.06;5053422;28;20776;-61
2023/05/27 07:31:58;;;;;;;20.73;5.32;;;;;;;13.84;100.00;102668.50;5054449;28;20427;-61
2023/05/27 07:34:27;;;;;;;15.95;4.88;;;;;;;13.99;100.00;102658.94;5054540;28;20053;-61
2023/05/27 07:36:56;;;;;;;18.95;5.05;;;;;;;14.16;100.00;102658.06;5036845;28;20504;-60
2023/05/27 07:39:25;;;;;;;17.67;5.40;;;;;;;14.32;100.00;102664.25;5054525;28;20047;-61
2023/05/27 07:41:53;;;;;;;15.43;4.75;;;;;;;14.41;100.00;102651.47;5054492;28;20067;-60
2023/05/27 07:44:22;;;;;;;21.45;5.32;;;;;;;14.54;100.00;102647.25;5054486;28;20044;-59
2023/05/27 07:46:50;;;;;;;17.48;4.97;;;;;;;14.86;100.00;102655.25;5053118;28;20049;-59
2023/05/27 07:49:18;;;;;;;16.45;5.28;;;;;;;14.88;100.00;102650.75;5053388;28;20045;-59
2023/05/27 07:51:46;;;;;;;19.63;5.45;;;;;;;15.07;100.00;102650.59;5053514;28;20045;-60
2023/05/27 07:54:17;;;;;;;20.60;5.35;;;;;;;15.04;100.00;102650.78;5052646;28;20103;-60
2023/05/27 07:56:47;;;;;;;20.38;5.40;;;;;;;15.23;100.00;102660.31;5051320;28;20045;-59
2023/05/27 07:59:18;;;;;;;17.35;4.63;;;;;;;15.35;100.00;102647.25;5051861;28;20120;-59
2023/05/27 08:01:46;;;;;;;16.67;4.68;;;;;;;15.35;100.00;102646.38;5052482;28;20443;-59
2023/05/27 08:04:14;;;;;;;21.63;5.57;;;;;;;15.59;100.00;102641.47;5052966;28;20131;-61
2023/05/27 08:06:52;;;;;;;22.05;5.75;;;;;;;15.86;100.00;102636.38;5051770;28;20497;-62
2023/05/27 08:09:20;;;;;;;15.13;5.05;;;;;;;16.07;100.00;102629.88;5052958;28;20298;-61
2023/05/27 08:11:50;;;;;;;17.40;5.07;;;;;;;16.16;100.00;102643.44;5052993;28;20500;-60
2023/05/27 08:14:20;;;;;;;18.92;5.35;;;;;;;16.14;100.00;102633.88;5053084;28;20045;-60
2023/05/27 08:16:48;;;;;;;16.08;4.85;;;;;;;16.35;100.00;102626.41;5053023;28;20045;-61
2023/05/27 08:19:17;;;;;;;18.60;5.38;;;;;;;16.47;100.00;102622.13;5052064;28;20067;-60
2023/05/27 08:21:45;;;;;;;16.90;5.57;;;;;;;16.62;100.00;102612.34;5049742;28;20115;-55
2023/05/27 08:24:14;;;;;;;17.08;5.30;;;;;;;16.84;100.00;102614.50;5052354;28;20053;-61
2023/05/27 08:26:42;;;;;;;18.50;5.78;;;;;;;17.01;100.00;102601.00;5052808;28;20041;-62
2023/05/27 08:29:12;;;;;;;18.00;4.97;;;;;;;17.20;100.00;102595.31;5050644;28;20098;-61
2023/05/27 08:31:40;;;;;;;15.55;5.38;;;;;;;17.35;100.00;102601.44;5050586;28;20099;-57
2023/05/27 08:34:10;;;;;;;18.23;5.40;;;;;;;17.39;100.00;102594.13;5049599;28;20584;-56
2023/05/27 08:36:38;;;;;;;15.68;4.90;;;;;;;17.57;100.00;102590.25;5049772;28;20433;-56
2023/05/27 08:39:06;;;;;;;18.10;5.43;;;;;;;17.78;100.00;102595.06;5035012;28;20392;-56
2023/05/27 08:41:35;;;;;;;20.25;5.88;;;;;;;17.88;100.00;102581.97;5052708;28;20041;-55
2023/05/27 08:44:03;;;;;;;18.58;5.43;;;;;;;18.17;100.00;102584.44;5051365;28;20047;-61
2023/05/27 08:46:51;;;;;;;20.13;5.63;;;;;;;18.22;100.00;102587.63;5051474;28;20131;-61
2023/05/27 08:49:20;;;;;;;18.35;5.60;;;;;;;18.31;100.00;102576.34;5035030;28;20067;-62
2023/05/27 08:51:49;;;;;;;21.35;6.28;;;;;;;18.31;100.00;102579.00;5061470;28;20055;-63
2023/05/27 08:54:21;;;;;;;;;;;;;;;18.61;100.00;102567.13;5070525;28;20044;-63
2023/05/27 08:56:53;;;;;;;17.90;5.93;;;;;;;18.51;100.00;102563.41;5071307;28;19961;-63
2023/05/27 08:59:22;;;;;;;79.30;10.80;;;;;;;18.81;100.00;102557.66;5050964;28;20048;-62
2023/05/27 09:01:52;;;;;;;16.63;5.05;;;;;;;18.82;100.00;102553.19;5058852;28;20040;-62
2023/05/27 09:04:22;;;;;;;14.07;4.83;;;;;;;18.96;100.00;102549.53;5075962;28;20139;-62
2023/05/27 09:06:51;;;;;;;19.65;6.05;;;;;;;19.13;100.00;102545.59;5069319;28;20469;-63
2023/05/27 09:09:20;;;;;;;20.20;5.47;;;;;;;19.30;100.00;102542.50;5080524;28;20047;-63
2023/05/27 09:11:51;;;;;;;16.37;5.47;;;;;;;19.45;100.00;102543.16;5075241;28;20045;-64
2023/05/27 09:14:23;;;;;;;18.58;5.70;;;;;;;19.71;100.00;102545.66;5070806;28;20126;-64
2023/05/27 09:16:52;;;;;;;16.42;5.65;;;;;;;19.61;100.00;102542.00;5077525;28;20128;-65
2023/05/27 09:19:21;;;;;;;18.52;5.88;;;;;;;19.61;100.00;102539.34;5072083;28;20046;-63
2023/05/27 09:21:52;;;;;;;14.65;5.38;;;;;;;19.81;100.00;102532.47;5074357;28;20063;-58
2023/05/27 09:24:20;;;;;;;17.48;5.22;;;;;;;20.02;100.00;102535.28;5078008;28;20040;-58
2023/05/27 09:26:51;;;;;;;29.38;6.35;;;;;;;20.25;100.00;102530.78;5067351;28;20127;-57
2023/05/27 09:29:25;;;;;;;18.50;5.93;;;;;;;20.18;100.00;102530.41;5072286;28;20049;-60
2023/05/27 09:31:56;;;;;;;18.50;6.30;;;;;;;20.30;100.00;102531.28;5072759;28;20040;-59
2023/05/27 09:34:29;;;;;;;16.63;5.60;;;;;;;20.54;100.00;102532.91;5059726;28;20042;-59
2023/05/27 09:36:58;;;;;;;13.93;5.90;;;;;;;20.28;100.00;102530.53;5062823;28;20033;-58
2023/05/27 09:39:27;;;;;;;16.17;5.57;;;;;;;20.68;100.00;102532.69;5055638;28;20044;-58
2023/05/27 09:41:56;;;;;;;15.68;5.63;;;;;;;20.79;96.28;102523.75;5067792;28;20087;-59
2023/05/27 09:44:28;;;;;;;17.20;5.65;;;;;;;20.81;99.95;102518.31;5071418;28;20055;-59
2023/05/27 09:46:59;;;;;;;14.95;5.53;;;;;;;21.16;96.79;102523.38;5066849;28;20048;-59
2023/05/27 09:49:29;;;;;;;16.05;5.47;;;;;;;21.23;92.71;102521.06;5070210;28;20040;-60
2023/05/27 09:51:58;;;;;;;15.80;5.88;;;;;;;21.53;95.52;102514.06;5072266;28;20164;-59
2023/05/27 09:54:27;;;;;;;16.50;5.43;;;;;;;21.70;90.31;102507.28;5067016;28;20051;-59
2023/05/27 09:56:57;;;;;;;17.05;6.03;;;;;;;21.78;87.49;102508.28;5049489;28;20382;-60
2023/05/27 09:59:26;;;;;;;16.77;6.20;;;;;;;21.71;84.05;102504.47;5061890;28;20049;-68
2023/05/27 10:01:56;;;;;;;16.60;5.68;;;;;;;21.50;82.13;102507.16;5074001;28;20048;-59
2023/05/27 10:04:26;;;;;;;15.40;5.60;;;;;;;21.77;81.69;102500.38;5083269;28;20150;-66
2023/05/27 10:06:55;;;;;;;16.20;6.05;;;;;;;21.87;83.67;102500.44;5063813;28;20434;-69
2023/05/27 10:09:24;;;;;;;16.20;5.40;;;;;;;21.86;83.46;102496.91;5074428;28;20475;-69
2023/05/27 10:11:53;;;;;;;17.80;5.38;;;;;;;21.84;77.77;102496.22;5064311;28;20119;-70
2023/05/27 10:14:22;;;;;;;15.23;5.25;;;;;;;21.99;70.70;102485.13;5066243;28;20056;-68
2023/05/27 10:16:54;;;;;;;16.75;5.40;;;;;;;22.17;72.39;102477.28;5063948;28;20079;-68
2023/05/27 10:19:23;;;;;;;18.23;5.88;;;;;;;22.26;71.65;102466.59;5061939;28;20048;-71
2023/05/27 10:21:54;;;;;;;13.77;5.18;;;;;;;22.54;71.24;102465.97;5058184;28;20045;-60
2023/05/27 10:24:32;;;;;;;13.30;5.68;;;;;;;22.72;72.66;102472.31;5046578;28;20056;-57
2023/05/27 10:27:02;;;;;;;16.42;5.55;;;;;;;22.77;68.47;102467.38;5059689;28;20071;-59
2023/05/27 10:29:37;;;;;;;15.05;5.43;;;;;;;22.99;63.89;102468.06;5069474;28;20123;-59
2023/05/27 10:32:06;;;;;;;16.40;5.53;;;;;;;22.93;63.58;102468.63;5072490;28;20115;-59
2023/05/27 10:34:37;;;;;;;14.40;4.88;;;;;;;23.17;66.94;102468.22;5069305;28;20063;-59
2023/05/27 10:37:06;;;;;;;14.65;4.88;;;;;;;23.28;65.55;102464.53;5070705;28;20037;-58
2023/05/27 10:39:35;;;;;;;15.88;5.80;;;;;;;23.26;64.39;102462.00;5053441;28;20052;-58
2023/05/27 10:42:03;;;;;;;17.70;5.22;;;;;;;23.53;65.82;102456.81;5070119;28;20070;-59
2023/05/27 10:44:33;;;;;;;17.45;5.43;;;;;;;23.72;65.50;102462.09;5073753;28;20141;-58
2023/05/27 10:47:03;;;;;;;15.52;5.72;;;;;;;23.38;60.00;102461.81;5072770;28;20083;-59
2023/05/27 10:49:36;;;;;;;16.95;5.85;;;;;;;;;;5070026;28;20040;-59
2023/05/27 10:52:12;;;;;;;;;;;;;;;23.82;61.47;102454.03;5074500;28;20040;-59
2023/05/27 10:54:43;;;;;;;14.90;5.43;;;;;;;23.90;61.17;102450.59;5055463;28;20360;-58
2023/05/27 10:57:11;;;;;;;16.13;5.45;;;;;;;24.14;59.81;102445.50;5073835;28;20067;-59
2023/05/27 10:59:48;;;;;;;13.98;5.50;;;;;;;24.31;59.83;102429.59;5068161;28;20055;-58
2023/05/27 11:02:17;;;;;;;15.63;5.55;;;;;;;24.62;60.11;102432.75;5070423;28;20032;-59
2023/05/27 11:04:45;;;;;;;20.13;6.18;;;;;;;24.76;59.01;102425.13;5070850;28;20037;-59
2023/05/27 11:07:19;;;;;;;15.02;5.63;;;;;;;24.97;57.90;102424.78;5069970;28;20043;-58
2023/05/27 11:09:49;;;;;;;13.68;5.00;;;;;;;24.79;55.46;102417.59;5071923;28;20052;-58
2023/05/27 11:12:18;;;;;;;14.70;5.28;;;;;;;24.98;57.46;102423.78;5067915;28;20067;-58
2023/05/27 11:14:47;;;;;;;15.98;5.57;;;;;;;25.07;55.54;102420.16;5069973;28;20058;-59
2023/05/27 11:17:16;;;;;;;18.20;5.70;;;;;;;25.12;55.98;102419.66;5069253;28;20546;-59
2023/05/27 11:19:45;;;;;;;15.00;5.10;;;;;;;25.46;55.02;102417.03;5069148;28;20112;-60
2023/05/27 11:22:17;;;;;;;14.27;5.53;;;;;;;25.62;53.52;102412.75;5053091;28;20040;-59
2023/05/27 11:24:56;;;;;;;14.20;5.10;;;;;;;25.78;52.59;102401.16;5072990;28;20044;-60
2023/05/27 11:27:24;;;;;;;12.73;5.07;;;;;;;25.64;48.53;102399.94;5067811;28;20511;-59